Yorkton Municipal Airport
CYQV : now visible

Airfield :











YOU CAN JOIN US ON...

 
LOGIN :

Register | Disclaimer

   EN    FR    IT 

 









Legend :    VFR   Marginal VFR   IFR   Intensive IFR   Very Intensive IFR
Visi :
Ceiling :
>= 8 km
>= 3000ft
5 to 8 km
1000 to 3000 ft
1500m to 5 km
500 to 1000 ft
800 to 1500m
200 to 500 ft
< 800m
< 200 ft
Symbols :   Thunderstorms  Fog  Heavy snow  Heavy precipitations  Wind > 20 kt






- Airport Elevation : 1635 ft
- IATA code : YQV


CYQV - Yorkton Municipal

CURRENT METAR :
  • 150517Z AUTO 01006KT 9SM OVC025 M01/M03 A3036 RMK SLP311

EXPIRED METARs :
  • 150500Z AUTO 36006KT 9SM OVC023 M01/M03 A3036 RMK SLP312
  • 150411Z AUTO 03006KT 9SM FEW016 OVC023 M00/M03 A3036 RMK SLP310
  • 150300Z AUTO 34003KT 9SM BKN027 OVC096 00/M03 A3036 RMK SLP314

TAF AMD TAF CYQV
Valid from the 15 at 04:00 until the 15 at 06:00 UTC


150413Z 1504/1506 02005KT P6SM SCT015 OVC025
TEMPO 1504/1506 OVC015 RMK FCST BASED ON AUTO OBS. NXT FCST WILL BE ISSUED AT 151145Z
CZWG FIR / North America



MET'MAP, your aeronautical weather chart ! - Copyright ORBIFLY December 2007 - Disclaimer

ORBIFLY MET'MAP TEAM :

Programming & Development : Alexandra Zaïnal
Concept & original design : Baudouin d'Aumeries
Assistance for programming : Marc-Olivier Méhu
Technical & hardware support : Manuel Goepfert

Contact : metmap@orbifly.com




SOURCES & CREDITS :

   NOAA       Earth
Advisory